Time;durP1;ratioP1;P1;durP2;ratioP2;P2;SDS_P1;SDS_P2;PMS_P1;PMS_P2;Temp;Humidity;BMP_temperature;BMP_pressure;BME280_temperature;BME280_humidity;BME280_pressure;Samples;Min_cycle;Max_cycle;Signal;HPM_P1;HPM_P2
2022/12/11 00:01:23;;;;;;;12.00;9.50;;;;;;;;;;108133;1275;24197;-33
2022/12/11 00:03:56;;;;;;;12.70;9.90;;;;;;;;;;108090;1273;22583;-34
2022/12/11 00:06:28;;;;;;;12.10;9.00;;;;;;;;;;108087;1274;24895;-34
2022/12/11 00:09:04;;;;;;;12.20;9.20;;;;;;;;;;108070;1277;22721;-34
2022/12/11 00:11:39;;;;;;;12.80;9.70;;;;;;;;;;108067;1274;24819;-33
2022/12/11 00:14:12;;;;;;;12.10;9.90;;;;;;;;;;108174;1272;25301;-34
2022/12/11 00:16:44;;;;;;;11.40;9.40;;;;;;;;;;108171;1271;24915;-34
2022/12/11 00:19:19;;;;;;;11.50;9.10;;;;;;;;;;108161;1275;24884;-34
2022/12/11 00:21:51;;;;;;;11.50;9.30;;;;;;;;;;108107;1274;24887;-34
2022/12/11 00:24:24;;;;;;;11.30;8.70;;;;;;;;;;108075;1278;22564;-34
2022/12/11 00:26:59;;;;;;;11.40;9.40;;;;;;;;;;108082;1265;22566;-34
2022/12/11 00:29:31;;;;;;;11.90;9.70;;;;;;;;;;108092;1276;22565;-34
2022/12/11 00:32:05;;;;;;;11.80;9.30;;;;;;;;;;108041;1271;22744;-34
2022/12/11 00:34:37;;;;;;;11.60;9.60;;;;;;;;;;108200;1271;22556;-34
2022/12/11 00:37:12;;;;;;;11.40;8.80;;;;;;;;;;108175;1271;22561;-33
2022/12/11 00:39:45;;;;;;;12.00;9.30;;;;;;;;;;108163;1272;22667;-34
2022/12/11 00:42:17;;;;;;;11.00;9.20;;;;;;;;;;108135;1271;22973;-34
2022/12/11 00:44:50;;;;;;;11.50;8.80;;;;;;;;;;108102;1272;22586;-34
2022/12/11 00:47:24;;;;;;;10.70;8.70;;;;;;;;;;108087;1271;22600;-34
2022/12/11 00:49:59;;;;;;;11.10;8.60;;;;;;;;;;108074;1279;22577;-34
2022/12/11 00:52:31;;;;;;;11.50;9.00;;;;;;;;;;108036;1272;23907;-34
2022/12/11 00:55:04;;;;;;;11.90;8.90;;;;;;;;;;108167;1271;22592;-34
2022/12/11 00:57:38;;;;;;;10.90;9.10;;;;;;;;;;108162;1271;22572;-33
2022/12/11 01:00:16;;;;;;;11.10;8.40;;;;;;;;;;108168;1269;24854;-33
2022/12/11 01:02:51;;;;;;;13.00;8.70;;;;;;;;;;108109;1275;22619;-34
2022/12/11 01:05:25;;;;;;;11.40;8.80;;;;;;;;;;108086;1274;22581;-34
2022/12/11 01:07:57;;;;;;;10.80;8.60;;;;;;;;;;108077;1274;24923;-34
2022/12/11 01:10:30;;;;;;;10.50;8.60;;;;;;;;;;108065;1272;25392;-34
2022/12/11 01:13:06;;;;;;;10.90;8.50;;;;;;;;;;108054;1279;25154;-34
2022/12/11 01:15:44;;;;;;;10.20;8.10;;;;;;;;;;108153;1275;24834;-34
2022/12/11 01:18:17;;;;;;;11.20;8.20;;;;;;;;;;108177;1271;22566;-34
2022/12/11 01:20:50;;;;;;;10.80;8.60;;;;;;;;;;108136;1269;22576;-34
2022/12/11 01:23:22;;;;;;;10.50;8.10;;;;;;;;;;108133;1272;22581;-34
2022/12/11 01:25:54;;;;;;;11.60;8.60;;;;;;;;;;108080;1274;24913;-34
2022/12/11 01:28:27;;;;;;;10.90;8.40;;;;;;;;;;108070;1267;26087;-34
2022/12/11 01:31:00;;;;;;;10.20;7.90;;;;;;;;;;108059;1273;22575;-34
2022/12/11 01:33:33;;;;;;;9.20;8.10;;;;;;;;;;108029;1278;22577;-34
2022/12/11 01:36:13;;;;;;;10.90;8.00;;;;;;;;;;108168;1272;22563;-34
2022/12/11 01:38:46;;;;;;;10.70;8.00;;;;;;;;;;108177;1272;25308;-34
2022/12/11 01:41:20;;;;;;;9.70;7.80;;;;;;;;;;108196;1271;22655;-34
2022/12/11 01:44:28;;;;;;;10.20;8.30;;;;;;;;;;108093;1271;25417;-34
2022/12/11 01:47:00;;;;;;;9.60;7.40;;;;;;;;;;108075;1274;25285;-34
2022/12/11 01:49:33;;;;;;;9.40;7.70;;;;;;;;;;108076;1277;22572;-34
2022/12/11 01:52:21;;;;;;;10.50;8.30;;;;;;;;;;108072;1273;25318;-34
2022/12/11 01:54:57;;;;;;;9.90;7.80;;;;;;;;;;108103;1274;22565;-34
2022/12/11 01:57:30;;;;;;;9.10;7.40;;;;;;;;;;108142;1274;24841;-34
2022/12/11 02:00:06;;;;;;;11.00;8.20;;;;;;;;;;108159;1271;22586;-34
2022/12/11 02:02:41;;;;;;;9.70;7.30;;;;;;;;;;108172;1272;22568;-34
2022/12/11 02:05:14;;;;;;;10.00;8.00;;;;;;;;;;108069;1272;22570;-34
2022/12/11 02:07:52;;;;;;;10.40;7.70;;;;;;;;;;108081;1272;22560;-34
2022/12/11 02:10:32;;;;;;;9.50;7.50;;;;;;;;;;108090;1271;22569;-34
2022/12/11 02:13:11;;;;;;;9.70;7.70;;;;;;;;;;108075;1272;22571;-34
2022/12/11 02:15:54;;;;;;;10.00;7.80;;;;;;;;;;108128;1275;22592;-34
2022/12/11 02:18:37;;;;;;;10.80;7.90;;;;;;;;;;108148;1271;24897;-34
2022/12/11 02:21:19;;;;;;;9.90;7.20;;;;;;;;;;108156;1271;22570;-34
2022/12/11 02:24:33;;;;;;;9.80;7.50;;;;;;;;;;108189;1271;24649;-34
2022/12/11 02:27:32;;;;;;;10.00;7.40;;;;;;;;;;108007;1272;22566;-34
2022/12/11 02:30:08;;;;;;;10.00;7.40;;;;;;;;;;108166;1272;22565;-34
2022/12/11 02:32:47;;;;;;;10.40;7.80;;;;;;;;;;108188;1271;22568;-34
2022/12/11 02:35:30;;;;;;;9.00;7.20;;;;;;;;;;108130;1271;22565;-34
2022/12/11 02:38:08;;;;;;;10.30;8.20;;;;;;;;;;108052;1277;22706;-34
2022/12/11 02:40:44;;;;;;;9.70;6.90;;;;;;;;;;108072;1272;22572;-34
2022/12/11 02:43:20;;;;;;;9.50;6.90;;;;;;;;;;108049;1268;22555;-34
2022/12/11 02:45:55;;;;;;;9.30;6.90;;;;;;;;;;108059;1271;22563;-34
2022/12/11 02:48:29;;;;;;;9.80;7.70;;;;;;;;;;108166;1272;22569;-34
2022/12/11 02:51:03;;;;;;;9.60;7.20;;;;;;;;;;108152;1276;24859;-34
2022/12/11 02:53:40;;;;;;;10.90;8.40;;;;;;;;;;108183;1271;25518;-34
2022/12/11 02:56:18;;;;;;;9.80;8.10;;;;;;;;;;108088;1271;25278;-34
2022/12/11 02:58:56;;;;;;;9.50;7.10;;;;;;;;;;108088;1274;25251;-34
2022/12/11 03:01:29;;;;;;;10.50;7.50;;;;;;;;;;108103;1271;24857;-34
2022/12/11 03:04:02;;;;;;;10.50;8.00;;;;;;;;;;108073;1271;22563;-34
2022/12/11 03:06:46;;;;;;;9.50;7.40;;;;;;;;;;108061;1274;24909;-34
2022/12/11 03:09:19;;;;;;;9.90;7.60;;;;;;;;;;108169;1271;22617;-34
2022/12/11 03:11:51;;;;;;;10.30;8.00;;;;;;;;;;108163;1271;22599;-34
2022/12/11 03:14:23;;;;;;;10.40;8.60;;;;;;;;;;108157;1271;24923;-34
2022/12/11 03:17:03;;;;;;;11.30;8.20;;;;;;;;;;108083;1271;25315;-34
2022/12/11 03:19:42;;;;;;;10.20;8.30;;;;;;;;;;107977;1272;25238;-33
2022/12/11 03:22:20;;;;;;;11.30;8.40;;;;;;;;;;108100;1274;22582;-34
2022/12/11 03:25:04;;;;;;;10.70;8.50;;;;;;;;;;108077;1274;24983;-34
2022/12/11 03:27:45;;;;;;;11.10;8.50;;;;;;;;;;108102;1271;24924;-34
2022/12/11 03:30:22;;;;;;;11.50;8.80;;;;;;;;;;108175;1271;24838;-34
2022/12/11 03:32:58;;;;;;;10.30;8.10;;;;;;;;;;108168;1273;22582;-33
2022/12/11 03:35:38;;;;;;;11.00;7.80;;;;;;;;;;108173;1271;22785;-34
2022/12/11 03:38:15;;;;;;;11.60;8.30;;;;;;;;;;108055;1272;22572;-34
2022/12/11 03:40:52;;;;;;;10.00;8.00;;;;;;;;;;108087;1273;22602;-34
2022/12/11 03:43:25;;;;;;;10.20;7.60;;;;;;;;;;108075;1274;22561;-34
2022/12/11 03:45:58;;;;;;;11.30;8.60;;;;;;;;;;108072;1273;24832;-34
2022/12/11 03:48:32;;;;;;;;;;;;;;;;;;108103;1272;24958;-34
2022/12/11 03:51:10;;;;;;;10.30;7.50;;;;;;;;;;108180;1272;26510;-33
2022/12/11 03:53:49;;;;;;;10.60;8.10;;;;;;;;;;108183;1271;26080;-33
2022/12/11 03:56:24;;;;;;;9.70;7.30;;;;;;;;;;108158;1271;22571;-34
2022/12/11 03:58:59;;;;;;;10.30;7.70;;;;;;;;;;108200;1273;22588;-34
2022/12/11 04:01:31;;;;;;;12.40;8.40;;;;;;;;;;108077;1267;22567;-33
2022/12/11 04:04:04;;;;;;;10.50;7.60;;;;;;;;;;108120;1274;25253;-33
2022/12/11 04:06:37;;;;;;;11.70;8.70;;;;;;;;;;108112;1267;22610;-33
2022/12/11 04:09:12;;;;;;;10.30;8.10;;;;;;;;;;108138;1276;22562;-33
2022/12/11 04:11:44;;;;;;;9.70;7.70;;;;;;;;;;108175;1271;22904;-33
2022/12/11 04:17:11;;;;;;;10.30;8.20;;;;;;;;;;108132;1271;22816;-33
2022/12/11 04:25:24;;;;;;;10.40;7.70;;;;;;;;;;108087;1280;22588;-33
2022/12/11 04:27:57;;;;;;;9.90;7.70;;;;;;;;;;108092;1272;24966;-33
2022/12/11 04:30:30;;;;;;;10.80;7.90;;;;;;;;;;108186;1271;24818;-33
2022/12/11 04:33:01;;;;;;;;;;;;;;;;;;108187;1271;25256;-34
2022/12/11 04:35:34;;;;;;;10.60;7.90;;;;;;;;;;108155;1265;22577;-34
2022/12/11 04:38:06;;;;;;;10.60;7.90;;;;;;;;;;108132;1273;22578;-33
2022/12/11 04:40:38;;;;;;;9.10;7.50;;;;;;;;;;108091;1274;25275;-34
2022/12/11 04:43:11;;;;;;;10.00;8.00;;;;;;;;;;108090;1273;22707;-34
2022/12/11 04:45:43;;;;;;;10.10;7.50;;;;;;;;;;108099;1273;22690;-34
2022/12/11 04:48:16;;;;;;;10.90;7.90;;;;;;;;;;108090;1268;25416;-34
2022/12/11 04:50:50;;;;;;;10.60;8.10;;;;;;;;;;108170;1271;22552;-33
2022/12/11 04:53:22;;;;;;;9.70;7.00;;;;;;;;;;108183;1272;25411;-33
2022/12/11 04:55:56;;;;;;;10.10;7.60;;;;;;;;;;108177;1265;23303;-33
2022/12/11 04:58:29;;;;;;;10.40;7.60;;;;;;;;;;108111;1273;22885;-34
2022/12/11 05:01:01;;;;;;;9.80;7.50;;;;;;;;;;108101;1273;22519;-34
2022/12/11 05:03:33;;;;;;;10.40;8.20;;;;;;;;;;108099;1273;24080;-34
2022/12/11 05:06:07;;;;;;;9.60;7.50;;;;;;;;;;107862;1273;314781;-34
2022/12/11 05:08:42;;;;;;;9.60;7.60;;;;;;;;;;108084;1274;22585;-33
2022/12/11 05:11:17;;;;;;;9.30;7.20;;;;;;;;;;108171;1271;23905;-34
2022/12/11 05:13:50;;;;;;;9.00;7.20;;;;;;;;;;108183;1271;24553;-34
2022/12/11 05:16:22;;;;;;;9.30;7.00;;;;;;;;;;108161;1265;22568;-33
2022/12/11 05:18:55;;;;;;;10.60;7.80;;;;;;;;;;108122;1272;22578;-33
2022/12/11 05:21:27;;;;;;;9.60;7.20;;;;;;;;;;108103;1273;22624;-33
2022/12/11 05:24:00;;;;;;;9.10;7.40;;;;;;;;;;108095;1272;22597;-33
2022/12/11 05:26:33;;;;;;;9.60;7.40;;;;;;;;;;108112;1272;24920;-33
2022/12/11 05:29:05;;;;;;;9.20;7.30;;;;;;;;;;108056;1274;22581;-33
2022/12/11 05:31:38;;;;;;;9.20;7.20;;;;;;;;;;108178;1272;25240;-34
2022/12/11 05:34:10;;;;;;;8.90;6.80;;;;;;;;;;108164;1272;22619;-34
2022/12/11 05:36:43;;;;;;;9.50;7.70;;;;;;;;;;108176;1272;25409;-33
2022/12/11 05:39:16;;;;;;;9.30;7.00;;;;;;;;;;108117;1272;22579;-33
2022/12/11 05:41:48;;;;;;;9.30;7.10;;;;;;;;;;108108;1272;22537;-34
2022/12/11 05:44:21;;;;;;;9.20;6.60;;;;;;;;;;108088;1277;23294;-33
2022/12/11 05:46:55;;;;;;;8.90;7.20;;;;;;;;;;108114;1271;22577;-33
2022/12/11 05:49:29;;;;;;;8.90;6.90;;;;;;;;;;108094;1272;22566;-33
2022/12/11 05:52:05;;;;;;;9.50;6.60;;;;;;;;;;108134;1272;22558;-34
2022/12/11 05:54:37;;;;;;;9.60;6.60;;;;;;;;;;108169;1272;22675;-33
2022/12/11 05:57:13;;;;;;;9.20;7.00;;;;;;;;;;108176;1271;22797;-33
2022/12/11 05:59:47;;;;;;;10.70;8.00;;;;;;;;;;108119;1271;23300;-33
2022/12/11 06:02:19;;;;;;;10.00;7.70;;;;;;;;;;108097;1273;22569;-33
2022/12/11 06:04:52;;;;;;;9.80;7.10;;;;;;;;;;108101;1273;23870;-33
2022/12/11 06:07:27;;;;;;;9.10;7.10;;;;;;;;;;108116;1271;23875;-33
2022/12/11 06:10:07;;;;;;;9.10;7.10;;;;;;;;;;108104;1268;24880;-33
2022/12/11 06:12:40;;;;;;;9.00;6.90;;;;;;;;;;108197;1271;22580;-33
2022/12/11 06:15:16;;;;;;;8.40;6.40;;;;;;;;;;108174;1272;23868;-33
2022/12/11 06:17:49;;;;;;;9.00;6.80;;;;;;;;;;108156;1272;23912;-33
2022/12/11 06:20:21;;;;;;;9.30;6.80;;;;;;;;;;108088;1270;24845;-33
2022/12/11 06:22:54;;;;;;;9.10;7.00;;;;;;;;;;108104;1273;22574;-33
2022/12/11 06:25:26;;;;;;;9.80;6.90;;;;;;;;;;108050;1280;25365;-33
2022/12/11 06:28:00;;;;;;;9.50;7.00;;;;;;;;;;108097;1273;24930;-33
2022/12/11 06:30:33;;;;;;;9.50;7.10;;;;;;;;;;108107;1271;24718;-33
2022/12/11 06:33:05;;;;;;;10.30;7.50;;;;;;;;;;108202;1269;24878;-33
2022/12/11 06:35:40;;;;;;;9.00;7.10;;;;;;;;;;108167;1270;22565;-34
2022/12/11 06:38:12;;;;;;;9.30;6.70;;;;;;;;;;108181;1275;22580;-34
2022/12/11 06:40:44;;;;;;;9.00;7.30;;;;;;;;;;108095;1279;22663;-33
2022/12/11 06:43:17;;;;;;;9.10;6.00;;;;;;;;;;108087;1273;22582;-33
2022/12/11 06:45:54;;;;;;;8.60;6.60;;;;;;;;;;108118;1272;22568;-33
2022/12/11 06:48:27;;;;;;;8.90;6.80;;;;;;;;;;108131;1273;23288;-33
2022/12/11 06:50:59;;;;;;;10.00;6.90;;;;;;;;;;108108;1277;25403;-34
2022/12/11 06:53:31;;;;;;;8.60;6.90;;;;;;;;;;108167;1271;23076;-33
2022/12/11 06:56:08;;;;;;;8.40;6.10;;;;;;;;;;108222;1269;22675;-33
2022/12/11 06:58:42;;;;;;;10.00;6.80;;;;;;;;;;108231;1279;22567;-33
2022/12/11 07:01:23;;;;;;;8.60;6.30;;;;;;;;;;108110;1273;22565;-33
2022/12/11 07:03:59;;;;;;;9.40;6.50;;;;;;;;;;108095;1277;23285;-34
2022/12/11 07:06:32;;;;;;;8.00;6.50;;;;;;;;;;108094;1273;22574;-34
2022/12/11 07:09:06;;;;;;;8.60;6.60;;;;;;;;;;108092;1271;22571;-33
2022/12/11 07:11:40;;;;;;;8.60;6.30;;;;;;;;;;108118;1272;23389;-33
2022/12/11 07:14:14;;;;;;;8.40;6.30;;;;;;;;;;108203;1279;22599;-33
2022/12/11 07:16:53;;;;;;;8.60;6.80;;;;;;;;;;108167;1278;22624;-33
2022/12/11 07:19:27;;;;;;;8.30;6.50;;;;;;;;;;108192;1268;22592;-34
2022/12/11 07:22:02;;;;;;;9.10;7.00;;;;;;;;;;108101;1271;24843;-33
2022/12/11 07:24:38;;;;;;;9.30;7.30;;;;;;;;;;108081;1274;22575;-33
2022/12/11 07:27:13;;;;;;;9.00;6.90;;;;;;;;;;108078;1278;22612;-33
2022/12/11 07:29:46;;;;;;;8.70;6.80;;;;;;;;;;108067;1274;22582;-33
2022/12/11 07:32:20;;;;;;;8.80;6.90;;;;;;;;;;108138;1272;22568;-33
2022/12/11 07:34:53;;;;;;;9.40;7.00;;;;;;;;;;108173;1271;22596;-34
2022/12/11 07:37:24;;;;;;;;;;;;;;;;;;108181;1272;24848;-34
2022/12/11 07:40:00;;;;;;;8.80;6.10;;;;;;;;;;108153;1271;25294;-34
2022/12/11 07:42:33;;;;;;;8.20;6.10;;;;;;;;;;108114;1272;22566;-33
2022/12/11 07:45:08;;;;;;;9.80;6.30;;;;;;;;;;108125;1273;24926;-33
2022/12/11 07:47:44;;;;;;;8.80;6.90;;;;;;;;;;108131;1274;22588;-34
2022/12/11 07:50:17;;;;;;;9.50;6.40;;;;;;;;;;108113;1273;22581;-34
2022/12/11 07:52:50;;;;;;;7.80;5.60;;;;;;;;;;108125;1271;22573;-33
2022/12/11 07:55:24;;;;;;;7.60;5.90;;;;;;;;;;108163;1272;25426;-34
2022/12/11 07:57:59;;;;;;;8.30;6.10;;;;;;;;;;108208;1269;22562;-34
2022/12/11 08:00:32;;;;;;;9.10;6.30;;;;;;;;;;108177;1272;25231;-34
2022/12/11 08:03:05;;;;;;;8.10;6.30;;;;;;;;;;108091;1279;22546;-34
2022/12/11 08:05:38;;;;;;;8.60;6.00;;;;;;;;;;108099;1272;22587;-34
2022/12/11 08:08:11;;;;;;;8.20;5.80;;;;;;;;;;108117;1273;23283;-34
2022/12/11 08:10:44;;;;;;;8.90;6.10;;;;;;;;;;108092;1279;26654;-34
2022/12/11 08:13:17;;;;;;;7.50;5.90;;;;;;;;;;108120;1271;22572;-34
2022/12/11 08:15:51;;;;;;;8.70;5.70;;;;;;;;;;108180;1271;22578;-34
2022/12/11 08:18:24;;;;;;;8.10;5.80;;;;;;;;;;108158;1271;24847;-33
2022/12/11 08:20:57;;;;;;;7.40;5.70;;;;;;;;;;108204;1279;22564;-34
2022/12/11 08:23:33;;;;;;;8.40;5.80;;;;;;;;;;108094;1271;22572;-34
2022/12/11 08:26:08;;;;;;;7.40;5.60;;;;;;;;;;108101;1272;22577;-33
2022/12/11 08:28:40;;;;;;;8.00;5.60;;;;;;;;;;108086;1273;22565;-34
2022/12/11 08:31:16;;;;;;;7.50;5.70;;;;;;;;;;108104;1277;22565;-34
2022/12/11 08:33:50;;;;;;;8.60;5.60;;;;;;;;;;108148;1277;24348;-34
2022/12/11 08:36:24;;;;;;;7.80;5.80;;;;;;;;;;108171;1272;23893;-33
2022/12/11 08:39:00;;;;;;;7.80;5.10;;;;;;;;;;108183;1271;22603;-34
2022/12/11 08:41:34;;;;;;;7.20;5.20;;;;;;;;;;108171;1273;22572;-34
2022/12/11 08:44:13;;;;;;;8.00;5.70;;;;;;;;;;108114;1269;22565;-34
2022/12/11 08:46:46;;;;;;;6.50;4.90;;;;;;;;;;108123;1277;22584;-34
2022/12/11 08:49:18;;;;;;;;;;;;;;;;;;108109;1277;24834;-34
2022/12/11 08:51:54;;;;;;;8.50;5.80;;;;;;;;;;108118;1271;22577;-34
2022/12/11 08:54:27;;;;;;;7.10;5.30;;;;;;;;;;108106;1273;22580;-34
2022/12/11 08:57:00;;;;;;;6.40;4.90;;;;;;;;;;108165;1274;22589;-34
2022/12/11 08:59:35;;;;;;;7.10;5.20;;;;;;;;;;108162;1271;22580;-34
2022/12/11 09:02:14;;;;;;;7.30;5.20;;;;;;;;;;108184;1271;22568;-34
2022/12/11 09:04:47;;;;;;;6.80;5.10;;;;;;;;;;108110;1271;25099;-33
2022/12/11 09:07:19;;;;;;;6.80;5.20;;;;;;;;;;108089;1271;22573;-33
2022/12/11 09:09:53;;;;;;;6.80;4.90;;;;;;;;;;108129;1276;23231;-33
2022/12/11 09:12:26;;;;;;;7.30;4.70;;;;;;;;;;108129;1274;22569;-33
2022/12/11 09:14:59;;;;;;;7.50;5.00;;;;;;;;;;108159;1276;22571;-33
2022/12/11 09:17:33;;;;;;;7.30;4.70;;;;;;;;;;108238;1278;22887;-33
2022/12/11 09:20:06;;;;;;;;;;;;;;;;;;108231;1278;22583;-33
2022/12/11 09:22:43;;;;;;;6.90;4.80;;;;;;;;;;108236;1274;22575;-33
2022/12/11 09:25:15;;;;;;;6.20;4.60;;;;;;;;;;108111;1264;22574;-33
2022/12/11 09:27:48;;;;;;;6.40;4.60;;;;;;;;;;108151;1277;22542;-33
2022/12/11 09:30:20;;;;;;;6.30;4.70;;;;;;;;;;108131;1279;22591;-33
2022/12/11 09:32:55;;;;;;;6.30;4.70;;;;;;;;;;108145;1273;23926;-33
2022/12/11 09:35:30;;;;;;;7.20;5.20;;;;;;;;;;108231;1271;23711;-33
2022/12/11 09:38:06;;;;;;;6.30;4.40;;;;;;;;;;108267;1278;24332;-33
2022/12/11 09:40:44;;;;;;;8.30;5.20;;;;;;;;;;108219;1272;22570;-33
2022/12/11 09:43:36;;;;;;;6.80;4.60;;;;;;;;;;108281;1268;22588;-33
2022/12/11 09:46:15;;;;;;;6.70;4.40;;;;;;;;;;108132;1274;22592;-33
2022/12/11 09:48:52;;;;;;;6.00;4.50;;;;;;;;;;108174;1278;23323;-33
2022/12/11 09:51:31;;;;;;;6.20;4.60;;;;;;;;;;108146;1273;22612;-33
2022/12/11 09:54:11;;;;;;;6.50;4.50;;;;;;;;;;108128;1275;22576;-33
2022/12/11 09:56:52;;;;;;;6.20;4.30;;;;;;;;;;108205;1271;22571;-33
2022/12/11 09:59:36;;;;;;;7.40;5.20;;;;;;;;;;108292;1269;25465;-32
2022/12/11 10:02:27;;;;;;;6.60;4.60;;;;;;;;;;108266;1278;22563;-33
2022/12/11 10:05:17;;;;;;;6.80;4.10;;;;;;;;;;108207;1279;24996;-33
2022/12/11 10:07:56;;;;;;;6.00;4.10;;;;;;;;;;108192;1273;22582;-33
2022/12/11 10:10:45;;;;;;;6.20;4.30;;;;;;;;;;108173;1274;25436;-34
2022/12/11 10:13:33;;;;;;;6.60;4.60;;;;;;;;;;108145;1273;22552;-33
2022/12/11 10:16:17;;;;;;;7.00;4.80;;;;;;;;;;108185;1277;22569;-33
2022/12/11 10:18:52;;;;;;;6.30;4.40;;;;;;;;;;108234;1268;22572;-33
2022/12/11 10:21:26;;;;;;;7.10;4.60;;;;;;;;;;108228;1268;23271;-33
2022/12/11 10:24:03;;;;;;;6.60;4.90;;;;;;;;;;108226;1275;22584;-33
2022/12/11 10:26:38;;;;;;;6.80;4.80;;;;;;;;;;108162;1273;22600;-33
2022/12/11 10:29:16;;;;;;;7.10;5.00;;;;;;;;;;108145;1280;22588;-34
2022/12/11 10:31:55;;;;;;;6.60;4.60;;;;;;;;;;108173;1280;22968;-34
2022/12/11 10:34:40;;;;;;;6.20;4.50;;;;;;;;;;108160;1274;22991;-33
2022/12/11 10:37:13;;;;;;;6.40;4.50;;;;;;;;;;108165;1272;24192;-33
2022/12/11 10:39:47;;;;;;;6.80;4.80;;;;;;;;;;108233;1272;22580;-34
2022/12/11 10:42:25;;;;;;;6.80;4.70;;;;;;;;;;108250;1279;22558;-33
2022/12/11 10:45:04;;;;;;;7.00;4.50;;;;;;;;;;108257;1278;22581;-33
2022/12/11 10:47:37;;;;;;;6.70;4.50;;;;;;;;;;108283;1273;22588;-34
2022/12/11 10:50:28;;;;;;;7.10;4.90;;;;;;;;;;108200;1277;22718;-34
2022/12/11 10:53:02;;;;;;;7.20;4.70;;;;;;;;;;108154;1268;22764;-33
2022/12/11 10:55:45;;;;;;;6.20;4.20;;;;;;;;;;108194;1277;23027;-32
2022/12/11 10:58:24;;;;;;;5.90;4.30;;;;;;;;;;108226;1270;22566;-33
2022/12/11 11:01:18;;;;;;;5.90;4.30;;;;;;;;;;108253;1278;22582;-33
2022/12/11 11:04:03;;;;;;;6.80;4.50;;;;;;;;;;108222;1273;22602;-33
2022/12/11 11:06:41;;;;;;;6.90;5.20;;;;;;;;;;108210;1269;24831;-34
2022/12/11 11:09:36;;;;;;;6.80;4.60;;;;;;;;;;108183;1279;22584;-34
2022/12/11 11:12:22;;;;;;;6.00;4.30;;;;;;;;;;108187;1277;22622;-34
2022/12/11 11:15:11;;;;;;;6.60;4.70;;;;;;;;;;108189;1268;22587;-34
2022/12/11 11:17:54;;;;;;;6.30;4.20;;;;;;;;;;108197;1272;22720;-33
2022/12/11 11:20:31;;;;;;;6.00;4.30;;;;;;;;;;108248;1275;23276;-33
2022/12/11 11:23:14;;;;;;;6.10;4.80;;;;;;;;;;108259;1275;22576;-33
2022/12/11 11:25:58;;;;;;;5.90;4.20;;;;;;;;;;108230;1278;22597;-33
2022/12/11 11:28:37;;;;;;;6.60;4.50;;;;;;;;;;108142;1278;22579;-33
2022/12/11 11:31:13;;;;;;;6.20;4.60;;;;;;;;;;108193;1279;22576;-33
2022/12/11 11:33:58;;;;;;;6.40;4.50;;;;;;;;;;108209;1278;22598;-33
2022/12/11 11:36:33;;;;;;;6.30;4.50;;;;;;;;;;108153;1270;22569;-33
2022/12/11 11:39:23;;;;;;;6.70;4.80;;;;;;;;;;108216;1276;25354;-34
2022/12/11 11:42:03;;;;;;;6.60;4.50;;;;;;;;;;108254;1265;22568;-33
2022/12/11 11:44:43;;;;;;;6.20;4.50;;;;;;;;;;108262;1276;22592;-33
2022/12/11 11:47:22;;;;;;;7.00;4.80;;;;;;;;;;108209;1276;22601;-33
2022/12/11 11:50:04;;;;;;;6.80;4.80;;;;;;;;;;108210;1272;22568;-33
2022/12/11 11:52:59;;;;;;;6.50;4.80;;;;;;;;;;108201;1273;22561;-33
2022/12/11 11:55:52;;;;;;;6.10;4.30;;;;;;;;;;108180;1270;24167;-34
2022/12/11 11:58:31;;;;;;;6.40;4.30;;;;;;;;;;108223;1277;23258;-33
2022/12/11 12:01:04;;;;;;;7.00;4.50;;;;;;;;;;108230;1278;22560;-33
2022/12/11 12:03:42;;;;;;;7.20;5.10;;;;;;;;;;108242;1275;22683;-33
2022/12/11 12:06:26;;;;;;;6.40;5.00;;;;;;;;;;108250;1275;23353;-34
2022/12/11 12:09:18;;;;;;;7.10;4.80;;;;;;;;;;108185;1276;22589;-34
2022/12/11 12:12:00;;;;;;;6.50;5.00;;;;;;;;;;108176;1278;22584;-33
2022/12/11 12:14:43;;;;;;;6.50;4.70;;;;;;;;;;108183;1275;22561;-32
2022/12/11 12:17:34;;;;;;;6.40;4.60;;;;;;;;;;108136;1278;22561;-31
2022/12/11 12:20:19;;;;;;;6.70;5.10;;;;;;;;;;108128;1276;22639;-31
2022/12/11 12:23:23;;;;;;;6.90;4.80;;;;;;;;;;108204;1271;22652;-30
2022/12/11 12:26:03;;;;;;;6.20;4.70;;;;;;;;;;108212;1277;22564;-29
2022/12/11 12:28:47;;;;;;;7.00;4.80;;;;;;;;;;108155;1276;22579;-29
2022/12/11 12:31:47;;;;;;;6.70;4.70;;;;;;;;;;108140;1272;22583;-29
2022/12/11 12:34:34;;;;;;;6.70;4.80;;;;;;;;;;108124;1277;22601;-29
2022/12/11 12:37:16;;;;;;;7.10;5.00;;;;;;;;;;108158;1274;22599;-29
2022/12/11 12:40:00;;;;;;;6.20;4.80;;;;;;;;;;108161;1272;22559;-29
2022/12/11 12:42:47;;;;;;;6.70;4.80;;;;;;;;;;108233;1276;22585;-31
2022/12/11 12:45:34;;;;;;;7.20;4.90;;;;;;;;;;108191;1272;25959;-31
2022/12/11 12:48:11;;;;;;;5.90;4.40;;;;;;;;;;108206;1278;22608;-31
2022/12/11 12:50:50;;;;;;;6.50;4.60;;;;;;;;;;108230;1271;22532;-31
2022/12/11 12:53:31;;;;;;;6.60;4.30;;;;;;;;;;108151;1275;23398;-31
2022/12/11 12:56:05;;;;;;;7.00;4.90;;;;;;;;;;108144;1278;23507;-31
2022/12/11 12:58:46;;;;;;;6.20;4.60;;;;;;;;;;108109;1278;25424;-31
2022/12/11 13:01:21;;;;;;;6.80;4.30;;;;;;;;;;108173;1272;22559;-31
2022/12/11 13:04:00;;;;;;;6.40;4.30;;;;;;;;;;108213;1276;23352;-31
2022/12/11 13:06:38;;;;;;;6.50;4.30;;;;;;;;;;107945;1278;321907;-31
2022/12/11 13:09:21;;;;;;;6.90;4.70;;;;;;;;;;108144;1277;22597;-31
2022/12/11 13:11:56;;;;;;;6.10;4.30;;;;;;;;;;108145;1276;22786;-31
2022/12/11 13:14:34;;;;;;;7.20;4.70;;;;;;;;;;108111;1271;22587;-31
2022/12/11 13:17:34;;;;;;;6.60;5.00;;;;;;;;;;108175;1277;22589;-31
2022/12/11 13:20:24;;;;;;;7.00;4.40;;;;;;;;;;108115;1277;24824;-31
2022/12/11 13:23:21;;;;;;;6.20;4.20;;;;;;;;;;108199;1278;22578;-31
2022/12/11 13:25:57;;;;;;;6.30;4.70;;;;;;;;;;108192;1278;22573;-31
2022/12/11 13:28:49;;;;;;;5.40;4.10;;;;;;;;;;108216;1278;22569;-31
2022/12/11 13:31:39;;;;;;;6.70;4.70;;;;;;;;;;108130;1277;22573;-31
2022/12/11 13:34:22;;;;;;;6.50;4.70;;;;;;;;;;108127;1277;22564;-31
2022/12/11 13:36:57;;;;;;;7.40;5.00;;;;;;;;;;108109;1277;22587;-31
2022/12/11 13:39:35;;;;;;;6.90;4.90;;;;;;;;;;108116;1274;22576;-31
2022/12/11 13:42:25;;;;;;;7.00;4.90;;;;;;;;;;108198;1278;25227;-30
2022/12/11 13:44:58;;;;;;;6.40;4.90;;;;;;;;;;108205;1275;24970;-31
2022/12/11 13:47:33;;;;;;;7.80;5.30;;;;;;;;;;108170;1278;22581;-31
2022/12/11 13:50:17;;;;;;;6.00;4.60;;;;;;;;;;108168;1273;22575;-31
2022/12/11 13:52:58;;;;;;;6.50;5.00;;;;;;;;;;108134;1277;22699;-31
2022/12/11 13:55:34;;;;;;;6.20;4.30;;;;;;;;;;108115;1272;22562;-31
2022/12/11 13:58:18;;;;;;;6.50;5.00;;;;;;;;;;108099;1277;25288;-31
2022/12/11 14:01:03;;;;;;;;;;;;;;;;;;108190;1268;25212;-31
2022/12/11 14:03:38;;;;;;;6.50;4.70;;;;;;;;;;108258;1278;22563;-31
2022/12/11 14:06:17;;;;;;;6.50;4.90;;;;;;;;;;108242;1278;24915;-30
2022/12/11 14:08:53;;;;;;;6.80;5.40;;;;;;;;;;108218;1278;24848;-29
2022/12/11 14:11:29;;;;;;;5.90;4.60;;;;;;;;;;108152;1276;23918;-29
2022/12/11 14:14:08;;;;;;;5.90;4.60;;;;;;;;;;108190;1277;22624;-29
2022/12/11 14:16:42;;;;;;;6.30;4.80;;;;;;;;;;108181;1278;24883;-29
2022/12/11 14:19:20;;;;;;;7.30;4.90;;;;;;;;;;108196;1271;25007;-29
2022/12/11 14:22:06;;;;;;;6.40;4.70;;;;;;;;;;108183;1272;22569;-29
2022/12/11 14:24:52;;;;;;;7.10;4.60;;;;;;;;;;108209;1277;22569;-29
2022/12/11 14:27:29;;;;;;;6.30;4.70;;;;;;;;;;108261;1268;22512;-29
2022/12/11 14:30:20;;;;;;;6.90;4.60;;;;;;;;;;108237;1279;22556;-29
2022/12/11 14:32:54;;;;;;;7.50;4.90;;;;;;;;;;108155;1276;22594;-29
2022/12/11 14:35:33;;;;;;;7.40;5.50;;;;;;;;;;108176;1277;23821;-29
2022/12/11 14:38:14;;;;;;;6.90;5.40;;;;;;;;;;108180;1277;22591;-29
2022/12/11 14:40:52;;;;;;;7.30;5.20;;;;;;;;;;108159;1277;26438;-29
2022/12/11 14:43:32;;;;;;;6.70;5.10;;;;;;;;;;108214;1278;25435;-29
2022/12/11 14:46:10;;;;;;;7.40;5.50;;;;;;;;;;108261;1276;22570;-33
2022/12/11 14:48:58;;;;;;;7.10;5.40;;;;;;;;;;108250;1278;22600;-33
2022/12/11 14:51:39;;;;;;;7.20;5.50;;;;;;;;;;108143;1273;22572;-33
2022/12/11 14:54:22;;;;;;;7.80;5.80;;;;;;;;;;108152;1277;24885;-33
2022/12/11 14:56:55;;;;;;;7.70;5.50;;;;;;;;;;108061;1277;22599;-33
2022/12/11 14:59:35;;;;;;;7.30;5.30;;;;;;;;;;108104;1272;22574;-31
2022/12/11 15:02:28;;;;;;;7.10;5.40;;;;;;;;;;108115;1279;22564;-30
2022/12/11 15:05:18;;;;;;;8.10;5.30;;;;;;;;;;108193;1278;22575;-28
2022/12/11 15:08:01;;;;;;;8.00;5.40;;;;;;;;;;109406;1278;22601;-29
2022/12/11 15:10:57;;;;;;;7.80;5.40;;;;;;;;;;108869;1273;23070;-28
2022/12/11 15:13:31;;;;;;;7.70;5.40;;;;;;;;;;107957;1274;22577;-28
2022/12/11 15:16:17;;;;;;;7.10;5.40;;;;;;;;;;108201;1276;26720;-28
2022/12/11 15:19:00;;;;;;;7.10;5.40;;;;;;;;;;107950;1277;22588;-28
2022/12/11 15:21:36;;;;;;;8.20;5.60;;;;;;;;;;108080;1272;25426;-28
2022/12/11 15:24:33;;;;;;;7.60;5.20;;;;;;;;;;108264;1273;22576;-28
2022/12/11 15:27:06;;;;;;;7.00;5.20;;;;;;;;;;108222;1278;25425;-28
2022/12/11 15:29:40;;;;;;;6.90;5.20;;;;;;;;;;108224;1278;24857;-28
2022/12/11 15:32:21;;;;;;;7.90;5.70;;;;;;;;;;108173;1276;25274;-28
2022/12/11 15:34:56;;;;;;;6.70;5.10;;;;;;;;;;108157;1276;22593;-31
2022/12/11 15:37:39;;;;;;;7.10;5.20;;;;;;;;;;108150;1277;22568;-31